createdAt,value
2018-05-12T00:01:59.628Z,4.80
2018-05-12T00:05:02.951Z,5.10
2018-05-12T00:08:06.281Z,4.87
2018-05-12T00:11:09.609Z,5.40
2018-05-12T00:14:12.917Z,4.37
2018-05-12T00:17:16.240Z,4.97
2018-05-12T00:20:19.544Z,5.30
2018-05-12T00:23:22.881Z,5.37
2018-05-12T00:26:26.189Z,4.97
2018-05-12T00:29:29.517Z,4.67
2018-05-12T00:32:33.593Z,5.03
2018-05-12T00:35:36.918Z,4.70
2018-05-12T00:38:41.004Z,4.43
2018-05-12T00:41:44.322Z,4.60
2018-05-12T00:44:47.648Z,4.47
2018-05-12T00:47:50.968Z,4.73
2018-05-12T00:50:54.270Z,4.40
2018-05-12T00:53:57.597Z,4.30
2018-05-12T00:57:00.905Z,4.23
2018-05-12T01:00:04.230Z,4.10
2018-05-12T01:03:07.555Z,4.27
2018-05-12T01:06:10.865Z,3.90
2018-05-12T01:09:14.209Z,3.73
2018-05-12T01:12:18.278Z,3.90
2018-05-12T01:15:21.610Z,3.90
2018-05-12T01:18:25.700Z,4.23
2018-05-12T01:21:29.000Z,4.43
2018-05-12T01:24:32.329Z,4.20
2018-05-12T01:27:36.397Z,4.00
2018-05-12T01:30:39.716Z,4.10
2018-05-12T01:33:43.031Z,3.67
2018-05-12T01:36:47.161Z,4.10
2018-05-12T01:39:50.494Z,3.80
2018-05-12T01:42:53.808Z,4.00
2018-05-12T01:45:57.136Z,3.73
2018-05-12T01:49:01.218Z,4.13
2018-05-12T01:52:04.577Z,3.70
2018-05-12T01:55:07.886Z,3.83
2018-05-12T01:58:11.209Z,3.73
2018-05-12T02:01:14.546Z,3.63
2018-05-12T02:04:18.637Z,4.20
2018-05-12T02:07:22.794Z,3.60
2018-05-12T02:10:26.061Z,3.27
2018-05-12T02:13:30.140Z,2.87
2018-05-12T02:16:33.461Z,3.60
2018-05-12T02:19:36.807Z,3.70
2018-05-12T02:22:40.113Z,4.23
2018-05-12T02:25:43.437Z,4.13
2018-05-12T02:28:46.749Z,3.50
2018-05-12T02:31:50.082Z,3.47
2018-05-12T02:34:53.393Z,3.60
2018-05-12T02:37:56.717Z,3.50
2018-05-12T02:41:00.034Z,3.40
2018-05-12T02:44:03.341Z,3.33
2018-05-12T02:47:07.419Z,3.27
2018-05-12T02:50:10.725Z,3.27
2018-05-12T02:53:14.054Z,3.27
2018-05-12T02:56:17.424Z,3.63
2018-05-12T02:59:20.749Z,3.40
2018-05-12T03:02:24.822Z,3.67
2018-05-12T03:05:28.144Z,3.27
2018-05-12T03:08:31.472Z,3.10
2018-05-12T03:11:34.776Z,3.50
2018-05-12T03:14:38.094Z,3.57
2018-05-12T03:17:41.407Z,3.70
2018-05-12T03:20:44.761Z,4.00
2018-05-12T03:23:48.078Z,3.53
2018-05-12T03:26:51.404Z,2.97
2018-05-12T03:29:54.736Z,3.57
2018-05-12T03:32:58.814Z,3.50
2018-05-12T03:36:02.136Z,3.43
2018-05-12T03:39:05.439Z,4.00
2018-05-12T03:42:09.526Z,3.60
2018-05-12T03:45:12.828Z,4.57
2018-05-12T03:48:16.594Z,4.30
2018-05-12T03:51:19.912Z,4.53
2018-05-12T03:54:23.208Z,4.10
2018-05-12T03:57:26.536Z,3.73
2018-05-12T04:00:30.600Z,3.87
2018-05-12T04:03:33.922Z,4.47
2018-05-12T04:06:55.021Z,4.27
2018-05-12T04:10:16.125Z,4.60
2018-05-12T04:13:20.224Z,4.80
2018-05-12T04:16:23.524Z,5.33
2018-05-12T04:19:26.858Z,4.80
2018-05-12T04:22:30.165Z,5.00
2018-05-12T04:25:33.498Z,5.87
2018-05-12T04:28:36.806Z,6.07
2018-05-12T04:31:40.124Z,6.80
2018-05-12T04:34:43.441Z,6.87
2018-05-12T04:37:46.756Z,6.00
2018-05-12T04:40:50.076Z,5.80
2018-05-12T04:43:54.152Z,6.13
2018-05-12T04:46:57.477Z,6.47
2018-05-12T04:50:01.558Z,6.83
2018-05-12T04:53:04.889Z,6.23
2018-05-12T04:56:08.958Z,6.70
2018-05-12T04:59:12.289Z,6.23
2018-05-12T05:02:15.609Z,6.23
2018-05-12T05:05:19.688Z,7.00
2018-05-12T05:08:23.024Z,6.80
2018-05-12T05:11:26.333Z,7.53
2018-05-12T05:14:29.658Z,7.57
2018-05-12T05:17:32.969Z,7.53
2018-05-12T05:20:36.298Z,7.70
2018-05-12T05:23:40.385Z,7.50
2018-05-12T05:26:43.714Z,7.67
2018-05-12T05:29:47.789Z,7.93
2018-05-12T05:32:51.114Z,7.93
2018-05-12T05:35:54.429Z,7.37
2018-05-12T05:38:57.755Z,7.53
2018-05-12T05:42:01.070Z,7.73
2018-05-12T05:45:04.419Z,7.93
2018-05-12T05:48:07.725Z,8.37
2018-05-12T05:51:11.051Z,7.70
2018-05-12T05:54:15.322Z,7.37
2018-05-12T05:57:18.865Z,9.10
2018-05-12T06:00:22.322Z,8.00
2018-05-12T06:03:26.420Z,8.17
2018-05-12T06:06:30.661Z,8.13
2018-05-12T06:09:34.318Z,7.93
2018-05-12T06:12:37.677Z,7.63
2018-05-12T06:15:41.062Z,7.70
2018-05-12T06:18:44.649Z,8.30
2018-05-12T06:21:48.760Z,8.70
2018-05-12T06:24:52.554Z,7.87
2018-05-12T06:27:56.046Z,8.17
2018-05-12T06:30:59.639Z,8.07
2018-05-12T06:34:02.940Z,8.17
2018-05-12T06:37:06.287Z,8.17
2018-05-12T06:40:09.593Z,8.50
2018-05-12T06:43:13.205Z,8.20
2018-05-12T06:46:16.913Z,7.87
2018-05-12T06:49:20.330Z,7.73
2018-05-12T06:52:23.696Z,8.50
2018-05-12T06:55:27.232Z,8.47
2018-05-12T06:58:30.566Z,8.90
2018-05-12T07:01:34.717Z,8.40
2018-05-12T07:04:38.076Z,8.70
2018-05-12T07:07:41.578Z,9.43
2018-05-12T07:10:45.683Z,8.63
2018-05-12T07:13:49.132Z,8.00
2018-05-12T07:16:52.478Z,9.63
2018-05-12T07:19:55.844Z,8.47
2018-05-12T07:22:59.196Z,8.73
2018-05-12T07:26:03.270Z,9.27
2018-05-12T07:29:06.598Z,9.40
2018-05-12T07:32:09.910Z,9.83
2018-05-12T07:35:13.985Z,9.70
2018-05-12T07:38:17.310Z,10.33
2018-05-12T07:41:21.389Z,9.10
2018-05-12T07:44:24.718Z,9.90
2018-05-12T07:47:28.824Z,9.93
2018-05-12T07:50:32.138Z,9.60
2018-05-12T07:53:36.233Z,10.70
2018-05-12T07:56:39.564Z,10.00
2018-05-12T07:59:42.897Z,10.90
2018-05-12T08:02:46.202Z,10.83
2018-05-12T08:05:49.525Z,10.63
2018-05-12T08:08:52.830Z,10.93
2018-05-12T08:11:56.920Z,10.57
2018-05-12T08:15:00.275Z,10.83
2018-05-12T08:18:03.814Z,10.43
2018-05-12T08:21:07.289Z,9.93
2018-05-12T08:24:10.600Z,9.90
2018-05-12T08:27:13.961Z,10.20
2018-05-12T08:30:17.392Z,9.93
2018-05-12T08:33:20.877Z,10.20
2018-05-12T08:36:24.331Z,10.03
2018-05-12T08:39:29.260Z,10.47
2018-05-12T08:42:32.809Z,9.90
2018-05-12T08:45:36.172Z,10.83
2018-05-12T08:48:40.305Z,10.37
2018-05-12T08:51:44.443Z,10.47
2018-05-12T08:54:48.645Z,10.87
2018-05-12T08:57:52.001Z,10.13
2018-05-12T09:00:55.615Z,10.20
2018-05-12T09:03:58.984Z,10.50
2018-05-12T09:07:02.333Z,10.17
2018-05-12T09:10:05.829Z,10.77
2018-05-12T09:13:09.917Z,9.90
2018-05-12T09:16:13.367Z,9.80
2018-05-12T09:19:16.722Z,10.03
2018-05-12T09:22:20.084Z,10.17
2018-05-12T09:25:23.421Z,9.70
2018-05-12T09:28:27.834Z,9.80
2018-05-12T09:31:31.169Z,9.63
2018-05-12T09:34:34.477Z,9.07
2018-05-12T09:37:37.811Z,9.37
2018-05-12T09:40:41.127Z,8.33
2018-05-12T09:43:45.293Z,9.07
2018-05-12T09:46:48.622Z,9.10
2018-05-12T09:49:51.954Z,9.53
2018-05-12T09:52:56.031Z,8.40
2018-05-12T09:55:59.350Z,8.57
2018-05-12T09:59:03.518Z,9.03
2018-05-12T10:02:06.837Z,8.63
2018-05-12T10:05:10.136Z,8.43
2018-05-12T10:08:13.444Z,7.93
2018-05-12T10:11:16.761Z,9.17
2018-05-12T10:14:20.845Z,8.43
2018-05-12T10:17:24.165Z,8.13
2018-05-12T10:20:28.242Z,9.37
2018-05-12T10:23:31.565Z,8.93
2018-05-12T10:26:34.885Z,8.80
2018-05-12T10:29:38.985Z,12.73
2018-05-12T10:32:43.052Z,8.90
2018-05-12T10:35:46.372Z,8.67
2018-05-12T10:38:49.683Z,8.33
2018-05-12T10:41:53.778Z,7.83
2018-05-12T10:44:57.101Z,7.40
2018-05-12T10:48:00.417Z,8.20
2018-05-12T10:51:04.500Z,7.97
2018-05-12T10:54:07.822Z,7.17
2018-05-12T10:57:11.910Z,7.40
2018-05-12T11:00:15.229Z,5.83
2018-05-12T11:03:19.333Z,6.13
2018-05-12T11:06:22.638Z,6.63
2018-05-12T11:09:26.749Z,6.07
2018-05-12T11:12:30.057Z,5.27
2018-05-12T11:15:33.365Z,6.07
2018-05-12T11:18:36.669Z,5.30
2018-05-12T11:21:40.025Z,5.10
2018-05-12T11:24:43.305Z,5.30
2018-05-12T11:27:46.617Z,5.93
2018-05-12T11:30:49.924Z,6.50
2018-05-12T11:33:53.232Z,6.83
2018-05-12T11:36:57.297Z,7.10
2018-05-12T11:40:00.615Z,6.43
2018-05-12T11:43:03.922Z,5.90
2018-05-12T11:46:07.249Z,6.47
2018-05-12T11:49:10.553Z,6.23
2018-05-12T11:52:13.877Z,6.43
2018-05-12T11:55:17.185Z,6.33
2018-05-12T11:58:20.523Z,6.33
2018-05-12T12:01:24.600Z,7.10
2018-05-12T12:04:27.938Z,6.37
2018-05-12T12:07:32.004Z,5.87
2018-05-12T12:10:35.318Z,6.07
2018-05-12T12:13:38.643Z,5.33
2018-05-12T12:16:42.801Z,6.30
2018-05-12T12:19:46.835Z,6.30
2018-05-12T12:22:50.172Z,5.70
2018-05-12T12:25:53.485Z,5.50
2018-05-12T12:28:56.809Z,6.67
2018-05-12T12:32:00.107Z,6.50
2018-05-12T12:35:03.425Z,5.80
2018-05-12T12:38:06.729Z,6.13
2018-05-12T12:41:10.059Z,6.60
2018-05-12T12:44:14.277Z,7.00
2018-05-12T12:47:17.609Z,7.43
2018-05-12T12:50:20.928Z,7.27
2018-05-12T12:53:24.246Z,7.00
2018-05-12T12:56:28.432Z,6.27
2018-05-12T12:59:31.742Z,6.70
2018-05-12T13:02:35.116Z,6.63
2018-05-12T13:05:38.443Z,6.53
2018-05-12T13:08:41.749Z,6.63
2018-05-12T13:11:45.836Z,6.90
2018-05-12T13:14:49.149Z,6.77
2018-05-12T13:17:52.479Z,7.07
2018-05-12T13:20:55.794Z,6.90
2018-05-12T13:23:59.121Z,7.47
2018-05-12T13:27:02.549Z,7.37
2018-05-12T13:30:06.692Z,7.87
2018-05-12T13:33:10.018Z,9.33
2018-05-12T13:36:13.542Z,9.43
2018-05-12T13:39:16.882Z,8.50
2018-05-12T13:42:20.209Z,9.70
2018-05-12T13:45:23.528Z,10.30
2018-05-12T13:48:26.853Z,9.53
2018-05-12T13:51:30.922Z,8.87
2018-05-12T13:54:34.237Z,7.70
2018-05-12T13:57:37.538Z,7.73
2018-05-12T14:00:40.862Z,7.57
2018-05-12T14:03:44.946Z,6.50
2018-05-12T14:06:48.266Z,7.67
2018-05-12T14:09:52.343Z,7.30
2018-05-12T14:12:55.664Z,6.50
2018-05-12T14:15:58.970Z,4.93
2018-05-12T14:19:03.145Z,5.87
2018-05-12T14:22:06.389Z,6.63
2018-05-12T14:25:10.457Z,6.03
2018-05-12T14:28:13.778Z,5.80
2018-05-12T14:31:17.090Z,4.70
2018-05-12T14:34:21.277Z,5.33
2018-05-12T14:37:24.580Z,5.70
2018-05-12T14:40:27.930Z,5.47
2018-05-12T14:43:31.237Z,6.93
2018-05-12T14:46:34.560Z,6.07
2018-05-12T14:49:37.871Z,8.50
2018-05-12T14:52:41.203Z,7.37
2018-05-12T14:55:44.514Z,7.70
2018-05-12T14:58:48.606Z,7.83
2018-05-12T15:01:52.694Z,7.23
2018-05-12T15:04:56.004Z,8.10
2018-05-12T15:07:59.315Z,8.70
2018-05-12T15:11:03.433Z,8.17
2018-05-12T15:14:07.511Z,7.90
2018-05-12T15:17:10.832Z,7.70
2018-05-12T15:20:14.913Z,9.47
2018-05-12T15:23:18.270Z,8.73
2018-05-12T15:26:21.594Z,10.10
2018-05-12T15:29:24.916Z,10.90
2018-05-12T15:32:28.231Z,10.63
2018-05-12T15:35:32.318Z,11.13
2018-05-12T15:38:35.640Z,12.27
2018-05-12T15:41:39.749Z,12.27
2018-05-12T15:44:43.061Z,12.27
2018-05-12T15:47:47.155Z,12.33
2018-05-12T15:50:50.485Z,11.73
2018-05-12T15:53:54.560Z,10.93
2018-05-12T15:56:57.882Z,12.23
2018-05-12T16:00:01.973Z,12.07
2018-05-12T16:03:05.298Z,10.37
2018-05-12T16:06:09.401Z,9.20
2018-05-12T16:09:13.485Z,10.03
2018-05-12T16:12:16.911Z,10.60
2018-05-12T16:15:20.156Z,10.40
2018-05-12T16:18:24.249Z,10.60
2018-05-12T16:21:27.562Z,9.97
2018-05-12T16:24:30.877Z,10.43
2018-05-12T16:27:34.191Z,11.57
2018-05-12T16:30:37.512Z,11.30
2018-05-12T16:33:41.587Z,11.33
2018-05-12T16:36:44.906Z,10.70
2018-05-12T16:39:48.220Z,10.63
2018-05-12T16:42:52.313Z,9.40
2018-05-12T16:45:55.616Z,9.53
2018-05-12T16:48:58.918Z,9.40
2018-05-12T16:52:02.249Z,9.27
2018-05-12T16:55:05.557Z,9.00
2018-05-12T16:58:08.896Z,8.70
2018-05-12T17:01:12.212Z,8.77
2018-05-12T17:04:16.306Z,7.40
2018-05-12T17:07:19.625Z,8.27
2018-05-12T17:10:22.956Z,8.03
2018-05-12T17:13:26.268Z,8.27
2018-05-12T17:16:29.580Z,8.97
2018-05-12T17:19:32.877Z,8.67
2018-05-12T17:22:36.213Z,10.30
2018-05-12T17:25:40.289Z,9.77
2018-05-12T17:28:43.627Z,9.77
2018-05-12T17:31:47.723Z,9.87
2018-05-12T17:34:51.050Z,9.90
2018-05-12T17:37:54.400Z,10.97
2018-05-12T17:40:57.710Z,11.10
2018-05-12T17:44:01.030Z,12.37
2018-05-12T17:47:05.120Z,11.87
2018-05-12T17:50:08.451Z,9.70
2018-05-12T17:53:11.765Z,10.20
2018-05-12T17:56:15.085Z,9.73
2018-05-12T17:59:18.412Z,9.63
2018-05-12T18:02:22.501Z,9.40
2018-05-12T18:05:25.805Z,8.60
2018-05-12T18:08:29.120Z,8.60
2018-05-12T18:11:32.452Z,8.67
2018-05-12T18:14:36.530Z,8.17
2018-05-12T18:17:39.846Z,12.23
2018-05-12T18:20:43.929Z,9.80
2018-05-12T18:23:47.225Z,9.20
2018-05-12T18:26:50.550Z,7.90
2018-05-12T18:29:54.612Z,7.00
2018-05-12T18:32:58.013Z,6.93
2018-05-12T18:36:01.254Z,6.03
2018-05-12T18:39:06.304Z,5.10
2018-05-12T18:42:09.548Z,5.23
2018-05-12T18:45:12.898Z,5.50
2018-05-12T18:48:17.152Z,5.80
2018-05-12T18:51:20.469Z,6.27
2018-05-12T18:54:23.812Z,6.50
2018-05-12T18:57:27.132Z,6.30
2018-05-12T19:00:31.222Z,5.60
2018-05-12T19:03:34.533Z,5.80
2018-05-12T19:06:37.858Z,6.03
2018-05-12T19:09:41.167Z,6.37
2018-05-12T19:12:44.480Z,5.87
2018-05-12T19:15:47.791Z,6.00
2018-05-12T19:18:51.868Z,5.50
2018-05-12T19:21:55.189Z,5.90
2018-05-12T19:24:58.494Z,5.90
2018-05-12T19:28:02.572Z,6.07
2018-05-12T19:31:05.949Z,6.07
2018-05-12T19:34:09.226Z,6.90
2018-05-12T19:37:12.530Z,6.63
2018-05-12T19:40:15.866Z,6.67
2018-05-12T19:43:19.189Z,6.70
2018-05-12T19:46:22.497Z,6.83
2018-05-12T19:49:26.577Z,7.80
2018-05-12T19:52:29.908Z,6.67
2018-05-12T19:55:33.990Z,6.20
2018-05-12T19:58:37.309Z,6.47
2018-05-12T20:01:41.427Z,6.50
2018-05-12T20:04:45.502Z,6.10
2018-05-12T20:07:48.825Z,6.50
2018-05-12T20:10:52.142Z,5.83
2018-05-12T20:13:56.214Z,5.90
2018-05-12T20:16:59.527Z,6.57
2018-05-12T20:20:02.846Z,7.03
2018-05-12T20:23:06.919Z,6.73
2018-05-12T20:26:10.245Z,7.07
2018-05-12T20:29:13.558Z,8.37
2018-05-12T20:32:17.637Z,7.67
2018-05-12T20:35:20.945Z,7.77
2018-05-12T20:38:24.271Z,7.67
2018-05-12T20:41:27.590Z,8.00
2018-05-12T20:44:31.693Z,8.93
2018-05-12T20:47:35.064Z,8.00
2018-05-12T20:50:38.318Z,8.30
2018-05-12T20:53:41.650Z,7.97
2018-05-12T20:56:44.966Z,8.17
2018-05-12T20:59:48.300Z,8.40
2018-05-12T21:02:51.609Z,9.67
2018-05-12T21:05:54.950Z,9.33
2018-05-12T21:08:59.026Z,9.60
2018-05-12T21:12:02.345Z,9.40
2018-05-12T21:15:05.665Z,9.53
2018-05-12T21:18:08.978Z,10.17
2018-05-12T21:21:12.302Z,10.23
2018-05-12T21:24:15.605Z,10.60
2018-05-12T21:27:18.930Z,10.17
2018-05-12T21:30:22.237Z,10.23
2018-05-12T21:33:26.339Z,9.90
2018-05-12T21:36:30.434Z,11.07
2018-05-12T21:39:33.758Z,10.20
2018-05-12T21:42:37.066Z,10.37
2018-05-12T21:45:41.157Z,11.50
2018-05-12T21:48:44.478Z,10.20
2018-05-12T21:51:48.582Z,10.47
2018-05-12T21:54:52.663Z,10.57
2018-05-12T21:57:55.987Z,10.60
2018-05-12T22:00:59.303Z,10.03
2018-05-12T22:04:03.409Z,10.57
2018-05-12T22:07:07.489Z,10.47
2018-05-12T22:10:10.810Z,10.13
2018-05-12T22:13:14.121Z,10.70
2018-05-12T22:16:18.204Z,10.33
2018-05-12T22:19:21.510Z,11.03
2018-05-12T22:22:24.829Z,10.70
2018-05-12T22:25:28.896Z,10.63
2018-05-12T22:28:32.222Z,10.27
2018-05-12T22:31:35.530Z,10.13
2018-05-12T22:34:39.625Z,11.00
2018-05-12T22:37:42.930Z,10.00
2018-05-12T22:40:46.248Z,10.30
2018-05-12T22:43:50.343Z,10.03
2018-05-12T22:46:53.650Z,10.93
2018-05-12T22:49:57.744Z,10.87
2018-05-12T22:53:01.056Z,11.10
2018-05-12T22:56:05.132Z,10.27
2018-05-12T22:59:08.553Z,11.87
2018-05-12T23:02:11.857Z,11.87
2018-05-12T23:05:16.033Z,11.30
2018-05-12T23:08:19.373Z,12.13
2018-05-12T23:11:22.682Z,12.37
2018-05-12T23:14:26.769Z,12.37
2018-05-12T23:17:30.085Z,12.33
2018-05-12T23:20:33.422Z,13.93
2018-05-12T23:23:36.730Z,15.80
2018-05-12T23:26:40.046Z,17.30
2018-05-12T23:29:43.353Z,18.40
2018-05-12T23:32:46.669Z,18.33
2018-05-12T23:35:50.750Z,18.97
2018-05-12T23:38:54.069Z,20.43
2018-05-12T23:41:57.400Z,19.70
2018-05-12T23:45:00.709Z,20.23
2018-05-12T23:48:04.025Z,21.00
2018-05-12T23:51:07.336Z,22.27
2018-05-12T23:54:10.662Z,23.43
2018-05-12T23:57:13.973Z,24.17
